createdAt,value
2017-03-05T00:00:15.905Z,7.55
2017-03-05T00:00:56.333Z,7.5
2017-03-05T00:01:36.745Z,7.51
2017-03-05T00:02:17.126Z,7.48
2017-03-05T00:02:57.579Z,7.46
2017-03-05T00:03:38.033Z,7.5
2017-03-05T00:04:18.416Z,7.44
2017-03-05T00:04:58.862Z,7.48
2017-03-05T00:05:39.242Z,7.43
2017-03-05T00:06:19.753Z,7.5
2017-03-05T00:07:00.177Z,7.44
2017-03-05T00:07:40.562Z,7.41
2017-03-05T00:08:20.990Z,7.39
2017-03-05T00:09:01.482Z,7.43
2017-03-05T00:09:42.024Z,7.44
2017-03-05T00:10:22.421Z,7.43
2017-03-05T00:11:02.883Z,7.39
2017-03-05T00:11:43.341Z,7.44
2017-03-05T00:12:23.748Z,7.39
2017-03-05T00:13:04.132Z,7.33
2017-03-05T00:13:44.542Z,7.37
2017-03-05T00:14:24.916Z,7.32
2017-03-05T00:15:05.312Z,7.23
2017-03-05T00:15:47.350Z,7.21
2017-03-05T00:16:27.809Z,7.25
2017-03-05T00:17:08.157Z,7.25
2017-03-05T00:17:48.899Z,7.18
2017-03-05T00:18:30.071Z,7.01
2017-03-05T00:19:10.498Z,7.07
2017-03-05T00:19:50.865Z,7.05
2017-03-05T00:20:31.311Z,7.11
2017-03-05T00:21:11.675Z,7.05
2017-03-05T00:21:52.121Z,6.95
2017-03-05T00:22:32.467Z,7.01
2017-03-05T00:23:13.977Z,6.95
2017-03-05T00:23:54.329Z,6.9
2017-03-05T00:24:35.751Z,6.95
2017-03-05T00:25:16.335Z,6.86
2017-03-05T00:25:56.675Z,6.86
2017-03-05T00:26:37.676Z,6.75
2017-03-05T00:27:19.496Z,6.87
2017-03-05T00:27:59.957Z,6.75
2017-03-05T00:28:40.362Z,6.77
2017-03-05T00:29:21.221Z,6.75
2017-03-05T00:30:02.256Z,6.72
2017-03-05T00:30:42.648Z,6.72
2017-03-05T00:31:23.870Z,6.78
2017-03-05T00:32:04.997Z,6.71
2017-03-05T00:32:45.373Z,6.83
2017-03-05T00:33:25.839Z,6.82
2017-03-05T00:34:06.232Z,6.78
2017-03-05T00:34:47.290Z,6.8
2017-03-05T00:35:27.631Z,6.75
2017-03-05T00:36:08.092Z,6.8
2017-03-05T00:36:50.043Z,6.87
2017-03-05T00:37:30.414Z,6.8
2017-03-05T00:38:10.840Z,6.74
2017-03-05T00:38:51.249Z,6.89
2017-03-05T00:39:31.708Z,6.71
2017-03-05T00:40:12.361Z,6.77
2017-03-05T00:40:52.776Z,6.78
2017-03-05T00:41:33.168Z,6.78
2017-03-05T00:42:14.195Z,6.75
2017-03-05T00:42:54.597Z,6.82
2017-03-05T00:43:35.010Z,6.74
2017-03-05T00:44:15.825Z,6.85
2017-03-05T00:44:56.241Z,6.68
2017-03-05T00:45:36.623Z,6.77
2017-03-05T00:46:17.071Z,6.74
2017-03-05T00:46:57.490Z,6.85
2017-03-05T00:47:37.914Z,6.74
2017-03-05T00:48:18.328Z,6.83
2017-03-05T00:48:58.853Z,6.82
2017-03-05T00:49:39.237Z,6.72
2017-03-05T00:50:19.625Z,6.8
2017-03-05T00:51:00.044Z,6.82
2017-03-05T00:51:40.442Z,6.75
2017-03-05T00:52:20.871Z,6.85
2017-03-05T00:53:01.265Z,6.72
2017-03-05T00:53:41.650Z,6.78
2017-03-05T00:54:22.106Z,6.7
2017-03-05T00:55:02.485Z,6.72
2017-03-05T00:55:43.250Z,6.75
2017-03-05T00:56:23.663Z,6.78
2017-03-05T00:57:04.857Z,6.82
2017-03-05T00:57:45.270Z,6.78
2017-03-05T00:58:25.660Z,6.77
2017-03-05T00:59:06.092Z,6.78
2017-03-05T00:59:46.493Z,6.78
2017-03-05T01:00:27.068Z,6.78
2017-03-05T01:01:07.456Z,6.77
2017-03-05T01:01:47.885Z,6.77
2017-03-05T01:02:28.242Z,6.74
2017-03-05T01:03:08.651Z,6.75
2017-03-05T01:03:49.093Z,6.78
2017-03-05T01:04:29.526Z,6.7
2017-03-05T01:05:10.666Z,6.77
2017-03-05T01:05:51.598Z,6.74
2017-03-05T01:06:31.438Z,6.72
2017-03-05T01:07:11.871Z,6.8
2017-03-05T01:07:52.243Z,6.78
2017-03-05T01:08:32.765Z,6.8
2017-03-05T01:09:13.190Z,6.8
2017-03-05T01:09:53.644Z,6.71
2017-03-05T01:10:34.019Z,6.77
2017-03-05T01:11:14.557Z,6.71
2017-03-05T01:11:55.528Z,6.85
2017-03-05T01:12:37.102Z,6.85
2017-03-05T01:13:17.521Z,6.82
2017-03-05T01:13:59.501Z,6.71
2017-03-05T01:14:39.965Z,6.75
2017-03-05T01:15:20.384Z,6.82
2017-03-05T01:16:02.205Z,6.75
2017-03-05T01:16:42.624Z,6.74
2017-03-05T01:17:22.974Z,6.72
2017-03-05T01:18:04.396Z,6.77
2017-03-05T01:18:44.822Z,6.77
2017-03-05T01:19:25.161Z,6.78
2017-03-05T01:20:05.607Z,6.77
2017-03-05T01:20:45.968Z,6.72
2017-03-05T01:21:26.383Z,6.77
2017-03-05T01:22:06.829Z,6.74
2017-03-05T01:22:47.765Z,6.78
2017-03-05T01:23:28.176Z,6.77
2017-03-05T01:24:08.616Z,6.74
2017-03-05T01:24:49.015Z,6.82
2017-03-05T01:25:30.071Z,6.83
2017-03-05T01:26:12.783Z,6.8
2017-03-05T01:26:53.187Z,6.78
2017-03-05T01:27:33.641Z,6.87
2017-03-05T01:28:14.025Z,6.86
2017-03-05T01:28:55.732Z,6.83
2017-03-05T01:29:37.610Z,6.86
2017-03-05T01:30:18.061Z,6.85
2017-03-05T01:30:58.423Z,6.87
2017-03-05T01:31:38.823Z,6.87
2017-03-05T01:32:19.709Z,6.85
2017-03-05T01:33:00.192Z,6.9
2017-03-05T01:33:41.517Z,6.85
2017-03-05T01:34:22.035Z,6.83
2017-03-05T01:35:02.440Z,6.8
2017-03-05T01:35:49.798Z,6.82
2017-03-05T01:36:30.190Z,6.85
2017-03-05T01:37:10.600Z,6.9
2017-03-05T01:37:52.925Z,6.92
2017-03-05T01:38:33.338Z,6.83
2017-03-05T01:39:13.741Z,6.85
2017-03-05T01:39:54.774Z,6.89
2017-03-05T01:40:35.722Z,6.85
2017-03-05T01:41:16.143Z,6.82
2017-03-05T01:41:56.548Z,6.89
2017-03-05T01:42:36.901Z,6.86
2017-03-05T01:43:17.907Z,6.82
2017-03-05T01:43:58.335Z,6.85
2017-03-05T01:44:39.019Z,6.83
2017-03-05T01:45:25.957Z,6.93
2017-03-05T01:46:06.388Z,6.86
2017-03-05T01:46:48.391Z,6.85
2017-03-05T01:47:29.548Z,6.92
2017-03-05T01:48:09.509Z,6.89
2017-03-05T01:48:49.921Z,6.92
2017-03-05T01:49:31.112Z,6.89
2017-03-05T01:50:11.562Z,6.85
2017-03-05T01:50:51.912Z,6.82
2017-03-05T01:51:32.929Z,6.83
2017-03-05T01:52:13.292Z,6.86
2017-03-05T01:52:53.807Z,6.87
2017-03-05T01:53:34.215Z,6.92
2017-03-05T01:54:15.474Z,6.9
2017-03-05T01:54:56.095Z,6.87
2017-03-05T01:55:36.480Z,6.87
2017-03-05T01:56:16.867Z,6.85
2017-03-05T01:56:58.488Z,6.87
2017-03-05T01:57:39.761Z,6.85
2017-03-05T01:58:20.224Z,6.87
2017-03-05T01:59:00.743Z,6.87
2017-03-05T01:59:41.187Z,6.87
2017-03-05T02:00:21.602Z,6.9
2017-03-05T02:01:02.014Z,6.85
2017-03-05T02:01:42.404Z,6.89
2017-03-05T02:02:23.415Z,6.72
2017-03-05T02:03:03.770Z,6.82
2017-03-05T02:03:44.616Z,6.85
2017-03-05T02:04:25.029Z,6.87
2017-03-05T02:05:05.454Z,6.85
2017-03-05T02:05:45.831Z,6.86
2017-03-05T02:06:26.192Z,6.9
2017-03-05T02:07:06.624Z,6.82
2017-03-05T02:07:47.052Z,6.9
2017-03-05T02:08:27.500Z,6.87
2017-03-05T02:09:07.868Z,6.8
2017-03-05T02:09:48.251Z,6.86
2017-03-05T02:10:28.749Z,6.85
2017-03-05T02:11:09.189Z,6.89
2017-03-05T02:11:49.533Z,6.87
2017-03-05T02:12:29.949Z,6.83
2017-03-05T02:13:10.456Z,6.9
2017-03-05T02:13:50.892Z,6.85
2017-03-05T02:14:31.232Z,6.85
2017-03-05T02:15:11.617Z,6.89
2017-03-05T02:15:52.060Z,6.86
2017-03-05T02:16:32.453Z,6.83
2017-03-05T02:17:12.864Z,6.82
2017-03-05T02:17:53.247Z,6.92
2017-03-05T02:18:33.664Z,6.9
2017-03-05T02:19:14.078Z,6.8
2017-03-05T02:19:54.491Z,6.83
2017-03-05T02:20:34.905Z,6.87
2017-03-05T02:21:15.301Z,6.82
2017-03-05T02:21:55.738Z,6.8
2017-03-05T02:22:36.098Z,6.8
2017-03-05T02:23:16.519Z,6.82
2017-03-05T02:23:56.972Z,6.8
2017-03-05T02:24:37.382Z,6.75
2017-03-05T02:25:17.787Z,6.77
2017-03-05T02:25:58.198Z,6.72
2017-03-05T02:26:38.602Z,6.77
2017-03-05T02:27:19.054Z,6.82
2017-03-05T02:27:59.464Z,6.77
2017-03-05T02:28:39.843Z,6.86
2017-03-05T02:29:20.257Z,6.83
2017-03-05T02:30:00.665Z,6.9
2017-03-05T02:30:41.089Z,6.8
2017-03-05T02:31:21.510Z,6.83
2017-03-05T02:32:01.907Z,6.85
2017-03-05T02:32:42.350Z,6.87
2017-03-05T02:33:22.736Z,6.9
2017-03-05T02:34:03.131Z,6.89
2017-03-05T02:34:43.608Z,6.9
2017-03-05T02:35:23.986Z,6.96
2017-03-05T02:36:04.388Z,6.95
2017-03-05T02:36:44.816Z,6.96
2017-03-05T02:37:25.221Z,6.9
2017-03-05T02:38:05.626Z,6.93
2017-03-05T02:38:46.033Z,6.95
2017-03-05T02:39:26.465Z,6.95
2017-03-05T02:40:06.848Z,6.87
2017-03-05T02:40:47.264Z,6.93
2017-03-05T02:41:27.687Z,7
2017-03-05T02:42:08.104Z,6.93
2017-03-05T02:42:48.463Z,6.93
2017-03-05T02:43:28.871Z,6.92
2017-03-05T02:44:09.326Z,6.96
2017-03-05T02:44:49.697Z,6.93
2017-03-05T02:45:30.130Z,6.95
2017-03-05T02:46:10.534Z,6.9
2017-03-05T02:46:51.047Z,6.89
2017-03-05T02:47:31.374Z,6.9
2017-03-05T02:48:11.794Z,6.96
2017-03-05T02:48:52.130Z,6.95
2017-03-05T02:49:32.713Z,6.95
2017-03-05T02:50:13.078Z,7
2017-03-05T02:50:53.510Z,7.04
2017-03-05T02:51:33.860Z,7
2017-03-05T02:52:14.331Z,7.03
2017-03-05T02:52:54.696Z,6.86
2017-03-05T02:53:35.089Z,7.04
2017-03-05T02:54:15.534Z,6.93
2017-03-05T02:54:55.940Z,7
2017-03-05T02:55:36.342Z,6.95
2017-03-05T02:56:16.738Z,7
2017-03-05T02:56:57.148Z,6.92
2017-03-05T02:57:37.563Z,6.85
2017-03-05T02:58:17.935Z,6.85
2017-03-05T02:58:58.376Z,6.77
2017-03-05T02:59:38.774Z,6.85
2017-03-05T03:00:19.186Z,6.8
2017-03-05T03:00:59.731Z,6.85
2017-03-05T03:01:40.125Z,6.87
2017-03-05T03:02:20.527Z,6.89
2017-03-05T03:03:00.996Z,6.92
2017-03-05T03:03:41.276Z,6.95
2017-03-05T03:04:21.712Z,6.89
2017-03-05T03:05:02.073Z,6.97
2017-03-05T03:05:42.489Z,6.95
2017-03-05T03:06:22.920Z,6.97
2017-03-05T03:07:03.311Z,7.01
2017-03-05T03:07:43.640Z,6.97
2017-03-05T03:08:24.108Z,7.05
2017-03-05T03:09:04.500Z,7.05
2017-03-05T03:09:44.930Z,7.07
2017-03-05T03:10:25.340Z,7.01
2017-03-05T03:11:05.773Z,7.01
2017-03-05T03:11:46.171Z,7.01
2017-03-05T03:12:26.543Z,7.01
2017-03-05T03:13:06.985Z,7.05
2017-03-05T03:13:47.370Z,7.03
2017-03-05T03:14:27.770Z,7.01
2017-03-05T03:15:08.185Z,7
2017-03-05T03:15:48.572Z,7.04
2017-03-05T03:16:29.011Z,7.08
2017-03-05T03:17:09.417Z,7.08
2017-03-05T03:17:49.766Z,6.96
2017-03-05T03:18:30.206Z,6.92
2017-03-05T03:19:10.572Z,7.01
2017-03-05T03:19:50.977Z,7.04
2017-03-05T03:20:31.385Z,6.96
2017-03-05T03:21:11.779Z,7
2017-03-05T03:21:52.224Z,6.95
2017-03-05T03:22:32.653Z,6.96
2017-03-05T03:23:13.068Z,7.04
2017-03-05T03:23:53.481Z,6.86
2017-03-05T03:24:33.923Z,6.95
2017-03-05T03:25:14.333Z,6.93
2017-03-05T03:25:54.738Z,6.92
2017-03-05T03:26:35.160Z,6.89
2017-03-05T03:27:15.571Z,6.97
2017-03-05T03:27:55.962Z,6.95
2017-03-05T03:28:36.397Z,6.92
2017-03-05T03:29:16.775Z,6.96
2017-03-05T03:29:57.208Z,6.96
2017-03-05T03:30:37.654Z,6.9
2017-03-05T03:31:18.020Z,6.9
2017-03-05T03:31:58.495Z,6.92
2017-03-05T03:32:38.904Z,6.93
2017-03-05T03:33:19.250Z,6.9
2017-03-05T03:33:59.684Z,6.92
2017-03-05T03:34:40.128Z,6.9
2017-03-05T03:35:20.525Z,6.86
2017-03-05T03:36:00.900Z,6.89
2017-03-05T03:36:41.324Z,6.89
2017-03-05T03:37:21.731Z,6.87
2017-03-05T03:38:02.169Z,6.77
2017-03-05T03:38:42.554Z,6.7
2017-03-05T03:39:23.071Z,6.85
2017-03-05T03:40:03.465Z,6.72
2017-03-05T03:40:43.884Z,6.74
2017-03-05T03:41:24.306Z,6.65
2017-03-05T03:42:04.717Z,6.68
2017-03-05T03:42:45.139Z,6.67
2017-03-05T03:43:25.569Z,6.62
2017-03-05T03:44:06.002Z,6.46
2017-03-05T03:44:46.377Z,6.56
2017-03-05T03:45:26.809Z,6.59
2017-03-05T03:46:07.252Z,6.54
2017-03-05T03:46:47.668Z,6.6
2017-03-05T03:47:28.127Z,6.54
2017-03-05T03:48:08.510Z,6.59
2017-03-05T03:48:48.944Z,6.59
2017-03-05T03:49:29.394Z,6.65
2017-03-05T03:50:09.848Z,6.59
2017-03-05T03:50:50.269Z,6.6
2017-03-05T03:51:30.689Z,6.6
2017-03-05T03:52:11.113Z,6.62
2017-03-05T03:52:51.477Z,6.68
2017-03-05T03:53:31.927Z,6.72
2017-03-05T03:54:12.299Z,6.71
2017-03-05T03:54:52.687Z,6.74
2017-03-05T03:55:33.087Z,6.7
2017-03-05T03:56:13.553Z,6.75
2017-03-05T03:56:53.995Z,6.8
2017-03-05T03:57:34.349Z,6.7
2017-03-05T03:58:14.796Z,6.77
2017-03-05T03:58:55.230Z,6.78
2017-03-05T03:59:35.614Z,6.78
2017-03-05T04:00:15.957Z,6.85
2017-03-05T04:00:56.388Z,6.75
2017-03-05T04:01:36.813Z,6.75
2017-03-05T04:02:17.197Z,6.83
2017-03-05T04:02:57.644Z,6.83
2017-03-05T04:03:38.037Z,6.89
2017-03-05T04:04:18.416Z,6.85
2017-03-05T04:04:58.874Z,6.87
2017-03-05T04:05:39.280Z,6.9
2017-03-05T04:06:19.680Z,6.9
2017-03-05T04:07:00.084Z,6.85
2017-03-05T04:07:40.483Z,6.92
2017-03-05T04:08:20.883Z,6.82
2017-03-05T04:09:01.271Z,6.87
2017-03-05T04:09:41.702Z,6.86
2017-03-05T04:10:22.058Z,6.82
2017-03-05T04:11:02.474Z,6.87
2017-03-05T04:11:42.836Z,6.86
2017-03-05T04:12:23.288Z,6.86
2017-03-05T04:13:03.636Z,6.89
2017-03-05T04:13:44.079Z,6.86
2017-03-05T04:14:24.442Z,6.82
2017-03-05T04:15:04.876Z,6.85
2017-03-05T04:15:45.278Z,6.89
2017-03-05T04:16:25.653Z,6.87
2017-03-05T04:17:06.036Z,6.82
2017-03-05T04:17:46.483Z,6.92
2017-03-05T04:18:26.934Z,6.87
2017-03-05T04:19:07.354Z,6.9
2017-03-05T04:19:47.715Z,6.9
2017-03-05T04:20:28.089Z,6.92
2017-03-05T04:21:08.530Z,6.95
2017-03-05T04:21:48.930Z,6.92
2017-03-05T04:22:29.368Z,6.9
2017-03-05T04:23:09.755Z,6.92
2017-03-05T04:23:50.155Z,6.93
2017-03-05T04:24:30.523Z,6.92
2017-03-05T04:25:10.957Z,6.97
2017-03-05T04:25:51.357Z,6.87
2017-03-05T04:26:31.804Z,6.93
2017-03-05T04:27:12.214Z,6.89
2017-03-05T04:27:52.609Z,6.85
2017-03-05T04:28:32.993Z,6.86
2017-03-05T04:29:13.385Z,6.83
2017-03-05T04:29:53.803Z,6.87
2017-03-05T04:30:34.200Z,6.89
2017-03-05T04:31:14.603Z,6.86
2017-03-05T04:31:54.998Z,6.89
2017-03-05T04:32:35.421Z,6.85
2017-03-05T04:33:15.778Z,6.78
2017-03-05T04:33:56.266Z,6.86
2017-03-05T04:34:36.643Z,6.89
2017-03-05T04:35:17.087Z,6.89
2017-03-05T04:35:57.517Z,6.9
2017-03-05T04:36:37.919Z,6.83
2017-03-05T04:37:18.319Z,6.82
2017-03-05T04:37:58.752Z,6.8
2017-03-05T04:38:39.206Z,6.85
2017-03-05T04:39:19.612Z,6.85
2017-03-05T04:40:00.049Z,6.89
2017-03-05T04:40:40.458Z,6.85
2017-03-05T04:41:20.885Z,6.87
2017-03-05T04:42:01.292Z,6.87
2017-03-05T04:42:41.662Z,6.85
2017-03-05T04:43:22.104Z,6.85
2017-03-05T04:44:02.478Z,6.89
2017-03-05T04:44:42.848Z,6.9
2017-03-05T04:45:23.275Z,6.87
2017-03-05T04:46:03.706Z,6.87
2017-03-05T04:46:44.095Z,6.85
2017-03-05T04:47:24.489Z,6.87
2017-03-05T04:48:04.903Z,6.85
2017-03-05T04:48:45.273Z,6.78
2017-03-05T04:49:25.720Z,6.77
2017-03-05T04:50:06.157Z,6.75
2017-03-05T04:50:46.606Z,6.74
2017-03-05T04:51:26.975Z,6.67
2017-03-05T04:52:07.375Z,6.62
2017-03-05T04:52:47.757Z,6.64
2017-03-05T04:53:28.201Z,6.64
2017-03-05T04:54:08.641Z,6.57
2017-03-05T04:54:49.051Z,6.57
2017-03-05T04:55:29.461Z,6.62
2017-03-05T04:56:09.935Z,6.54
2017-03-05T04:56:50.352Z,6.64
2017-03-05T04:57:30.867Z,6.59
2017-03-05T04:58:11.281Z,6.62
2017-03-05T04:58:51.658Z,6.6
2017-03-05T04:59:32.095Z,6.65
2017-03-05T05:00:12.495Z,6.59
2017-03-05T05:00:52.920Z,6.62
2017-03-05T05:01:33.377Z,6.59
2017-03-05T05:02:13.779Z,6.68
2017-03-05T05:02:54.272Z,6.68
2017-03-05T05:03:34.737Z,6.67
2017-03-05T05:04:15.183Z,6.67
2017-03-05T05:04:55.595Z,6.64
2017-03-05T05:05:36.049Z,6.64
2017-03-05T05:06:16.491Z,6.71
2017-03-05T05:06:56.861Z,6.68
2017-03-05T05:07:37.386Z,6.67
2017-03-05T05:08:17.799Z,6.8
2017-03-05T05:08:58.174Z,6.72
2017-03-05T05:09:38.594Z,6.7
2017-03-05T05:10:19.002Z,6.77
2017-03-05T05:10:59.366Z,6.75
2017-03-05T05:11:39.843Z,6.75
2017-03-05T05:12:20.196Z,6.74
2017-03-05T05:13:00.635Z,6.72
2017-03-05T05:13:41.018Z,6.8
2017-03-05T05:14:21.478Z,6.72
2017-03-05T05:15:01.874Z,6.8
2017-03-05T05:15:42.278Z,6.82
2017-03-05T05:16:22.643Z,6.74
2017-03-05T05:17:03.065Z,6.75
2017-03-05T05:17:43.490Z,6.7
2017-03-05T05:18:23.925Z,6.77
2017-03-05T05:19:04.364Z,6.77
2017-03-05T05:19:44.733Z,6.82
2017-03-05T05:20:25.192Z,6.8
2017-03-05T05:21:05.554Z,6.85
2017-03-05T05:21:45.979Z,6.77
2017-03-05T05:22:26.346Z,6.9
2017-03-05T05:23:06.776Z,6.85
2017-03-05T05:23:47.207Z,6.9
2017-03-05T05:24:27.597Z,6.85
2017-03-05T05:25:07.992Z,6.87
2017-03-05T05:25:48.430Z,6.85
2017-03-05T05:26:28.790Z,6.89
2017-03-05T05:27:09.227Z,6.9
2017-03-05T05:27:49.610Z,6.86
2017-03-05T05:28:30.034Z,6.85
2017-03-05T05:29:10.427Z,6.83
2017-03-05T05:29:50.832Z,6.87
2017-03-05T05:30:31.221Z,6.86
2017-03-05T05:31:11.671Z,6.93
2017-03-05T05:31:52.127Z,6.89
2017-03-05T05:32:32.523Z,6.82
2017-03-05T05:33:12.952Z,6.82
2017-03-05T05:33:53.325Z,6.85
2017-03-05T05:34:33.715Z,6.87
2017-03-05T05:35:14.126Z,6.87
2017-03-05T05:35:54.556Z,6.87
2017-03-05T05:36:34.926Z,6.87
2017-03-05T05:37:15.353Z,6.89
2017-03-05T05:37:55.775Z,6.87
2017-03-05T05:38:36.147Z,6.9
2017-03-05T05:39:16.574Z,6.9
2017-03-05T05:39:56.936Z,6.9
2017-03-05T05:40:37.419Z,6.89
2017-03-05T05:41:17.861Z,6.95
2017-03-05T05:41:58.245Z,6.92
2017-03-05T05:42:38.657Z,6.86
2017-03-05T05:43:19.011Z,6.93
2017-03-05T05:43:59.439Z,6.95
2017-03-05T05:44:39.869Z,6.92
2017-03-05T05:45:20.284Z,6.9
2017-03-05T05:46:00.671Z,6.96
2017-03-05T05:46:41.095Z,6.93
2017-03-05T05:47:21.521Z,6.95
2017-03-05T05:48:01.992Z,6.89
2017-03-05T05:48:42.364Z,6.95
2017-03-05T05:49:22.782Z,7
2017-03-05T05:50:03.166Z,6.95
2017-03-05T05:50:43.605Z,6.97
2017-03-05T05:51:23.984Z,6.92
2017-03-05T05:52:04.590Z,6.89
2017-03-05T05:52:45.026Z,6.96
2017-03-05T05:53:25.421Z,6.93
2017-03-05T05:54:05.861Z,6.93
2017-03-05T05:54:46.286Z,6.95
2017-03-05T05:55:26.720Z,7.01
2017-03-05T05:56:07.183Z,7.03
2017-03-05T05:56:47.614Z,6.89
2017-03-05T05:57:27.993Z,6.93
2017-03-05T05:58:08.412Z,6.93
2017-03-05T05:58:48.902Z,6.96
2017-03-05T05:59:29.323Z,6.97
2017-03-05T06:00:09.746Z,7.08
2017-03-05T06:00:50.148Z,6.97
2017-03-05T06:01:30.622Z,7
2017-03-05T06:02:10.979Z,7
2017-03-05T06:02:51.448Z,6.97
2017-03-05T06:03:31.819Z,7.04
2017-03-05T06:04:12.233Z,7.03
2017-03-05T06:04:52.688Z,7.03
2017-03-05T06:05:33.019Z,6.97
2017-03-05T06:06:13.432Z,6.97
2017-03-05T06:06:53.888Z,6.96
2017-03-05T06:07:34.255Z,6.95
2017-03-05T06:08:14.760Z,6.95
2017-03-05T06:08:55.049Z,7.01
2017-03-05T06:09:35.499Z,7.04
2017-03-05T06:10:15.905Z,7
2017-03-05T06:10:56.352Z,7.01
2017-03-05T06:11:36.734Z,7.04
2017-03-05T06:12:17.181Z,7.03
2017-03-05T06:12:57.592Z,7.04
2017-03-05T06:13:37.990Z,7.13
2017-03-05T06:14:18.408Z,7.1
2017-03-05T06:14:58.845Z,7
2017-03-05T06:15:39.233Z,7.13
2017-03-05T06:16:19.612Z,7.05
2017-03-05T06:16:59.976Z,7.04
2017-03-05T06:17:40.398Z,7.03
2017-03-05T06:18:20.821Z,7.13
2017-03-05T06:19:01.214Z,6.96
2017-03-05T06:19:41.593Z,6.97
2017-03-05T06:20:22.007Z,7.04
2017-03-05T06:21:02.403Z,7.07
2017-03-05T06:21:42.847Z,7.04
2017-03-05T06:22:23.235Z,7.03
2017-03-05T06:23:03.653Z,7.08
2017-03-05T06:23:44.114Z,7.03
2017-03-05T06:24:24.492Z,7.07
2017-03-05T06:25:04.973Z,7.08
2017-03-05T06:25:45.372Z,7.08
2017-03-05T06:26:25.724Z,7.05
2017-03-05T06:27:06.307Z,7.01
2017-03-05T06:27:46.847Z,7.04
2017-03-05T06:28:27.278Z,7.07
2017-03-05T06:29:07.643Z,7.03
2017-03-05T06:29:48.034Z,7.08
2017-03-05T06:30:28.407Z,7.1
2017-03-05T06:31:08.861Z,7.04
2017-03-05T06:31:49.274Z,7.07
2017-03-05T06:32:29.688Z,7.1
2017-03-05T06:33:10.071Z,7.01
2017-03-05T06:33:50.501Z,7.07
2017-03-05T06:34:30.856Z,7.05
2017-03-05T06:35:11.295Z,7.14
2017-03-05T06:35:51.699Z,7.1
2017-03-05T06:36:32.075Z,7.08
2017-03-05T06:37:12.501Z,7.15
2017-03-05T06:37:52.902Z,7.03
2017-03-05T06:38:33.285Z,7.05
2017-03-05T06:39:13.735Z,7.08
2017-03-05T06:39:54.078Z,7.05
2017-03-05T06:40:34.542Z,7.07
2017-03-05T06:41:14.889Z,7.05
2017-03-05T06:41:55.361Z,7.05
2017-03-05T06:42:35.672Z,7.05
2017-03-05T06:43:16.124Z,7.01
2017-03-05T06:43:56.577Z,7.07
2017-03-05T06:44:36.985Z,6.97
2017-03-05T06:45:17.369Z,7
2017-03-05T06:45:57.767Z,7.15
2017-03-05T06:46:38.182Z,7.04
2017-03-05T06:47:18.561Z,7
2017-03-05T06:47:58.984Z,7
2017-03-05T06:48:39.393Z,7.08
2017-03-05T06:49:19.782Z,7.13
2017-03-05T06:50:00.192Z,7.03
2017-03-05T06:50:40.589Z,7.05
2017-03-05T06:51:21.043Z,7.11
2017-03-05T06:52:01.414Z,7.11
2017-03-05T06:52:41.829Z,7.13
2017-03-05T06:53:22.189Z,7.05
2017-03-05T06:54:02.620Z,7.1
2017-03-05T06:54:43.027Z,7.18
2017-03-05T06:55:23.411Z,7.15
2017-03-05T06:56:03.797Z,7.22
2017-03-05T06:56:44.241Z,7.23
2017-03-05T06:57:24.627Z,7.25
2017-03-05T06:58:05.006Z,7.21
2017-03-05T06:58:45.468Z,7.29
2017-03-05T06:59:25.903Z,7.29
2017-03-05T07:00:06.269Z,7.29
2017-03-05T07:00:46.715Z,7.31
2017-03-05T07:01:27.090Z,7.31
2017-03-05T07:02:07.540Z,7.32
2017-03-05T07:02:47.931Z,7.37
2017-03-05T07:03:28.336Z,7.46
2017-03-05T07:04:08.764Z,7.39
2017-03-05T07:04:49.133Z,7.46
2017-03-05T07:05:29.535Z,7.5
2017-03-05T07:06:09.905Z,7.47
2017-03-05T07:06:50.428Z,7.46
2017-03-05T07:07:30.790Z,7.5
2017-03-05T07:08:11.181Z,7.51
2017-03-05T07:08:51.576Z,7.53
2017-03-05T07:09:32.007Z,7.59
2017-03-05T07:10:12.399Z,7.48
2017-03-05T07:10:52.847Z,7.61
2017-03-05T07:11:33.212Z,7.59
2017-03-05T07:12:13.639Z,7.61
2017-03-05T07:12:54.085Z,7.59
2017-03-05T07:13:34.486Z,7.67
2017-03-05T07:14:14.879Z,7.66
2017-03-05T07:14:55.324Z,7.59
2017-03-05T07:15:35.691Z,7.58
2017-03-05T07:16:16.167Z,7.74
2017-03-05T07:16:56.597Z,7.77
2017-03-05T07:17:36.985Z,7.66
2017-03-05T07:18:17.358Z,7.69
2017-03-05T07:18:57.807Z,7.77
2017-03-05T07:19:38.274Z,7.77
2017-03-05T07:20:18.576Z,7.75
2017-03-05T07:20:58.990Z,7.87
2017-03-05T07:21:39.378Z,7.85
2017-03-05T07:22:19.806Z,7.85
2017-03-05T07:23:00.280Z,7.85
2017-03-05T07:23:40.621Z,7.84
2017-03-05T07:24:20.995Z,7.88
2017-03-05T07:25:01.394Z,7.85
2017-03-05T07:25:41.802Z,7.88
2017-03-05T07:26:22.189Z,7.87
2017-03-05T07:27:02.630Z,7.87
2017-03-05T07:27:43.066Z,7.85
2017-03-05T07:28:23.440Z,7.87
2017-03-05T07:29:03.813Z,7.93
2017-03-05T07:29:44.273Z,7.91
2017-03-05T07:30:24.657Z,7.93
2017-03-05T07:31:05.056Z,7.93
2017-03-05T07:31:45.469Z,7.91
2017-03-05T07:32:25.883Z,7.95
2017-03-05T07:33:06.251Z,7.9
2017-03-05T07:33:46.650Z,7.9
2017-03-05T07:34:27.060Z,7.88
2017-03-05T07:35:07.479Z,7.87
2017-03-05T07:35:47.898Z,7.93
2017-03-05T07:36:28.286Z,7.88
2017-03-05T07:37:08.737Z,7.95
2017-03-05T07:37:49.277Z,7.96
2017-03-05T07:38:29.705Z,7.93
2017-03-05T07:39:10.098Z,7.88
2017-03-05T07:39:50.474Z,7.95
2017-03-05T07:40:30.928Z,8.01
2017-03-05T07:41:11.335Z,7.81
2017-03-05T07:41:51.806Z,7.9
2017-03-05T07:42:32.171Z,7.96
2017-03-05T07:43:12.641Z,7.99
2017-03-05T07:43:53.042Z,7.91
2017-03-05T07:44:33.474Z,8.01
2017-03-05T07:45:13.843Z,7.9
2017-03-05T07:45:54.278Z,7.96
2017-03-05T07:46:34.654Z,7.96
2017-03-05T07:47:15.074Z,7.99
2017-03-05T07:47:55.484Z,8.01
2017-03-05T07:48:35.868Z,8.02
2017-03-05T07:49:16.323Z,8.01
2017-03-05T07:49:56.675Z,8.09
2017-03-05T07:50:37.086Z,8.02
2017-03-05T07:51:17.556Z,8.11
2017-03-05T07:51:57.956Z,8.05
2017-03-05T07:52:38.330Z,8.11
2017-03-05T07:53:18.710Z,8.14
2017-03-05T07:53:59.141Z,8.11
2017-03-05T07:54:39.605Z,8.09
2017-03-05T07:55:20.081Z,8.11
2017-03-05T07:56:00.442Z,8.08
2017-03-05T07:56:40.904Z,8.09
2017-03-05T07:57:21.272Z,8.09
2017-03-05T07:58:01.730Z,8.14
2017-03-05T07:58:42.151Z,8.14
2017-03-05T07:59:22.530Z,8.14
2017-03-05T08:00:02.955Z,8.18
2017-03-05T08:00:43.344Z,8.14
2017-03-05T08:01:23.789Z,8.18
2017-03-05T08:02:04.239Z,8.26
2017-03-05T08:02:44.632Z,8.27
2017-03-05T08:03:25.050Z,8.27
2017-03-05T08:04:05.443Z,8.31
2017-03-05T08:04:45.863Z,8.35
2017-03-05T08:05:26.278Z,8.39
2017-03-05T08:06:06.704Z,8.38
2017-03-05T08:06:47.970Z,8.39
2017-03-05T08:07:28.393Z,8.39
2017-03-05T08:08:09.868Z,8.46
2017-03-05T08:08:51.867Z,8.56
2017-03-05T08:09:32.311Z,8.6
2017-03-05T08:10:12.724Z,8.64
2017-03-05T08:10:53.232Z,8.69
2017-03-05T08:11:33.676Z,8.72
2017-03-05T08:12:14.097Z,8.72
2017-03-05T08:12:54.521Z,8.81
2017-03-05T08:13:34.919Z,8.78
2017-03-05T08:14:15.446Z,8.78
2017-03-05T08:14:55.812Z,8.77
2017-03-05T08:15:36.325Z,8.86
2017-03-05T08:16:16.735Z,8.86
2017-03-05T08:16:57.266Z,8.72
2017-03-05T08:17:37.703Z,8.77
2017-03-05T08:18:18.060Z,8.81
2017-03-05T08:18:58.509Z,8.87
2017-03-05T08:19:38.923Z,8.97
2017-03-05T08:20:19.368Z,9.02
2017-03-05T08:20:59.752Z,9.19
2017-03-05T08:21:40.197Z,9.27
2017-03-05T08:22:20.643Z,9.34
2017-03-05T08:23:01.084Z,9.33
2017-03-05T08:23:41.476Z,9.31
2017-03-05T08:24:21.883Z,9.47
2017-03-05T08:25:02.405Z,9.39
2017-03-05T08:25:42.763Z,9.37
2017-03-05T08:26:23.205Z,9.33
2017-03-05T08:27:03.740Z,9.39
2017-03-05T08:27:44.101Z,9.48
2017-03-05T08:28:24.509Z,9.58
2017-03-05T08:29:04.976Z,9.62
2017-03-05T08:29:45.353Z,9.73
2017-03-05T08:30:25.752Z,9.77
2017-03-05T08:31:06.248Z,9.88
2017-03-05T08:31:47.525Z,9.97
2017-03-05T08:32:27.952Z,9.99
2017-03-05T08:33:08.425Z,10.03
2017-03-05T08:33:48.840Z,10.07
2017-03-05T08:34:29.237Z,10.28
2017-03-05T08:35:09.662Z,10.38
2017-03-05T08:35:50.026Z,10.41
2017-03-05T08:36:30.491Z,10.41
2017-03-05T08:37:10.870Z,10.48
2017-03-05T08:37:51.293Z,10.65
2017-03-05T08:38:31.736Z,10.64
2017-03-05T08:39:12.141Z,10.76
2017-03-05T08:39:52.584Z,10.82
2017-03-05T08:40:32.981Z,10.94
2017-03-05T08:41:13.373Z,10.9
2017-03-05T08:41:53.796Z,11.08
2017-03-05T08:42:34.186Z,11.26
2017-03-05T08:43:14.601Z,11.38
2017-03-05T08:43:55.049Z,11.53
2017-03-05T08:44:36.456Z,11.63
2017-03-05T08:45:16.818Z,11.77
2017-03-05T08:45:57.314Z,12
2017-03-05T08:46:37.864Z,12.07
2017-03-05T08:47:18.292Z,12.17
2017-03-05T08:47:58.767Z,12.2
2017-03-05T08:48:39.165Z,12.18
2017-03-05T08:49:19.582Z,12.2
2017-03-05T08:49:59.958Z,12.15
2017-03-05T08:50:40.345Z,12.28
2017-03-05T08:51:20.779Z,12.12
2017-03-05T08:52:01.268Z,12.18
2017-03-05T08:52:41.630Z,12.2
2017-03-05T08:53:22.207Z,12.11
2017-03-05T08:54:02.674Z,12.12
2017-03-05T08:54:43.260Z,12.12
2017-03-05T08:55:23.968Z,11.99
2017-03-05T08:56:04.429Z,11.86
2017-03-05T08:56:44.960Z,11.7
2017-03-05T08:57:25.376Z,11.7
2017-03-05T08:58:05.776Z,11.73
2017-03-05T08:58:46.173Z,11.73
2017-03-05T08:59:26.596Z,11.8
2017-03-05T09:00:07.036Z,11.85
2017-03-05T09:00:47.650Z,11.88